createdAt,value
2019-03-06T00:00:47.011Z,72.35
2019-03-06T00:03:22.465Z,72.35
2019-03-06T00:05:53.974Z,72.03
2019-03-06T00:08:25.294Z,71.96
2019-03-06T00:10:56.892Z,71.96
2019-03-06T00:13:28.828Z,72.46
2019-03-06T00:16:00.402Z,72.81
2019-03-06T00:18:31.944Z,72.05
2019-03-06T00:21:03.479Z,72.05
2019-03-06T00:23:34.941Z,73.04
2019-03-06T00:26:06.706Z,73.90
2019-03-06T00:28:38.231Z,75.58
2019-03-06T00:31:10.076Z,75.22
2019-03-06T00:33:41.690Z,75.22
2019-03-06T00:36:19.493Z,74.40
2019-03-06T00:38:50.804Z,74.40
2019-03-06T00:41:35.244Z,74.13
2019-03-06T00:44:07.107Z,74.13
2019-03-06T00:46:38.994Z,74.67
2019-03-06T00:49:10.556Z,75.18
2019-03-06T00:51:42.178Z,74.33
2019-03-06T00:54:14.045Z,74.33
2019-03-06T00:56:46.652Z,75.10
2019-03-06T00:59:18.426Z,75.33
2019-03-06T01:01:50.091Z,75.33
2019-03-06T01:04:22.023Z,74.53
2019-03-06T01:06:53.830Z,74.33
2019-03-06T01:09:25.449Z,74.33
2019-03-06T01:11:57.087Z,73.70
2019-03-06T01:14:29.175Z,73.19
2019-03-06T01:17:00.879Z,65.21
2019-03-06T01:19:32.510Z,65.21
2019-03-06T01:22:04.410Z,64.20
2019-03-06T01:24:36.514Z,64.20
2019-03-06T01:27:08.159Z,64.20
2019-03-06T01:29:39.735Z,63.84
2019-03-06T01:32:11.415Z,63.87
2019-03-06T01:35:00.635Z,63.64
2019-03-06T01:38:06.480Z,63.64
2019-03-06T01:41:00.344Z,63.23
2019-03-06T01:43:43.363Z,63.59
2019-03-06T01:46:15.520Z,63.65
2019-03-06T01:48:46.769Z,63.75
2019-03-06T01:51:18.647Z,63.75
2019-03-06T01:53:50.144Z,63.93
2019-03-06T01:56:21.899Z,62.60
2019-03-06T01:58:53.519Z,62.60
2019-03-06T02:01:25.265Z,61.80
2019-03-06T02:03:56.736Z,61.21
2019-03-06T02:06:28.495Z,61.21
2019-03-06T02:09:00.391Z,60.73
2019-03-06T02:11:31.787Z,60.73
2019-03-06T02:14:03.799Z,61.24
2019-03-06T02:16:35.356Z,60.56
2019-03-06T02:19:08.265Z,60.56
2019-03-06T02:21:40.289Z,60.81
2019-03-06T02:24:12.055Z,60.95
2019-03-06T02:26:44.525Z,60.31
2019-03-06T02:29:15.975Z,60.28
2019-03-06T02:31:47.707Z,60.27
2019-03-06T02:34:19.516Z,60.52
2019-03-06T02:36:51.296Z,60.36
2019-03-06T02:39:23.006Z,59.84
2019-03-06T02:41:54.979Z,60.31
2019-03-06T02:44:27.922Z,60.45
2019-03-06T02:46:59.565Z,60.45
2019-03-06T02:49:31.981Z,60.48
2019-03-06T02:52:04.183Z,60.48
2019-03-06T02:54:36.018Z,61.22
2019-03-06T02:57:08.037Z,61.27
2019-03-06T03:00:04.715Z,60.96
2019-03-06T03:02:42.263Z,61.42
2019-03-06T03:05:24.726Z,61.86
2019-03-06T03:07:56.498Z,61.86
2019-03-06T03:10:28.159Z,61.71
2019-03-06T03:13:00.075Z,60.97
2019-03-06T03:15:31.776Z,61.79
2019-03-06T03:18:03.688Z,61.55
2019-03-06T03:20:35.113Z,61.55
2019-03-06T03:23:06.895Z,61.55
2019-03-06T03:25:38.794Z,61.88
2019-03-06T03:28:10.876Z,62.32
2019-03-06T03:30:42.548Z,61.46
2019-03-06T03:33:14.155Z,61.46
2019-03-06T03:35:45.812Z,62.04
2019-03-06T03:38:17.432Z,61.65
2019-03-06T03:40:50.212Z,61.41
2019-03-06T03:43:22.130Z,61.41
2019-03-06T03:45:54.687Z,60.83
2019-03-06T03:48:26.036Z,60.97
2019-03-06T03:50:57.589Z,61.03
2019-03-06T03:53:29.410Z,61.18
2019-03-06T03:56:01.176Z,61.02
2019-03-06T03:58:32.962Z,61.01
2019-03-06T04:01:04.768Z,60.93
2019-03-06T04:03:36.658Z,60.93
2019-03-06T04:06:08.771Z,60.96
2019-03-06T04:08:40.617Z,60.28
2019-03-06T04:11:12.168Z,60.33
2019-03-06T04:13:44.004Z,58.83
2019-03-06T04:16:15.845Z,58.83
2019-03-06T04:18:47.847Z,59.17
2019-03-06T04:21:19.406Z,59.17
2019-03-06T04:23:51.450Z,57.72
2019-03-06T04:26:23.276Z,57.72
2019-03-06T04:28:54.855Z,58.55
2019-03-06T04:31:27.630Z,57.14
2019-03-06T04:33:59.521Z,57.14
2019-03-06T04:36:31.443Z,57.16
2019-03-06T04:39:04.475Z,56.83
2019-03-06T04:41:36.477Z,56.52
2019-03-06T04:44:08.043Z,56.24
2019-03-06T04:46:39.949Z,56.24
2019-03-06T04:49:11.412Z,54.54
2019-03-06T04:51:43.003Z,53.05
2019-03-06T04:54:14.612Z,53.00
2019-03-06T04:56:46.628Z,52.18
2019-03-06T04:59:18.397Z,52.18
2019-03-06T05:01:50.427Z,53.20
2019-03-06T05:04:22.074Z,51.28
2019-03-06T05:06:53.872Z,49.78
2019-03-06T05:09:25.520Z,49.64
2019-03-06T05:11:57.434Z,49.64
2019-03-06T05:14:29.238Z,50.00
2019-03-06T05:17:29.051Z,50.00
2019-03-06T05:20:00.686Z,49.00
2019-03-06T05:22:32.213Z,47.18
2019-03-06T05:25:04.137Z,47.18
2019-03-06T05:27:36.051Z,48.07
2019-03-06T05:30:07.926Z,48.07
2019-03-06T05:32:40.172Z,45.53
2019-03-06T05:35:38.029Z,44.81
2019-03-06T05:38:34.681Z,45.54
2019-03-06T05:41:06.573Z,45.66
2019-03-06T05:43:37.836Z,44.72
2019-03-06T05:46:09.694Z,44.72
2019-03-06T05:48:41.061Z,42.54
2019-03-06T05:51:12.616Z,42.52
2019-03-06T05:53:44.029Z,42.52
2019-03-06T05:56:15.737Z,42.48
2019-03-06T05:58:47.085Z,42.51
2019-03-06T06:01:18.758Z,42.51
2019-03-06T06:03:50.422Z,44.97
2019-03-06T06:06:22.452Z,41.87
2019-03-06T06:08:53.812Z,42.68
2019-03-06T06:11:38.909Z,42.15
2019-03-06T06:14:11.195Z,36.91
2019-03-06T06:16:42.763Z,36.91
2019-03-06T06:19:14.284Z,38.63
2019-03-06T06:22:07.153Z,41.29
2019-03-06T06:24:38.491Z,41.93
2019-03-06T06:27:10.265Z,41.93
2019-03-06T06:29:41.518Z,40.61
2019-03-06T06:32:12.746Z,38.76
2019-03-06T06:34:46.257Z,39.46
2019-03-06T06:37:17.911Z,40.61
2019-03-06T06:39:50.832Z,40.61
2019-03-06T06:42:22.055Z,39.88
2019-03-06T06:44:54.840Z,39.08
2019-03-06T06:47:26.239Z,39.08
2019-03-06T06:49:57.439Z,39.14
2019-03-06T06:52:49.889Z,41.72
2019-03-06T06:55:51.290Z,41.72
2019-03-06T06:58:52.704Z,40.09
2019-03-06T07:02:11.191Z,40.82
2019-03-06T07:05:24.271Z,40.82
2019-03-06T07:08:13.182Z,40.85
2019-03-06T07:10:49.770Z,40.85
2019-03-06T07:13:38.545Z,40.77
2019-03-06T07:16:27.205Z,40.30
2019-03-06T07:19:20.198Z,40.30
2019-03-06T07:21:57.808Z,41.23
2019-03-06T07:24:46.582Z,39.65
2019-03-06T07:27:31.959Z,40.34
2019-03-06T07:30:28.016Z,38.05
2019-03-06T07:33:19.024Z,37.25
2019-03-06T07:36:20.770Z,37.25
2019-03-06T07:38:57.417Z,36.14
2019-03-06T07:41:47.747Z,35.49
2019-03-06T07:44:37.319Z,35.49
2019-03-06T07:47:34.074Z,37.98
2019-03-06T07:50:32.545Z,37.98
2019-03-06T07:54:11.788Z,38.70
2019-03-06T07:56:54.418Z,38.70
2019-03-06T07:59:26.154Z,36.91
2019-03-06T08:02:01.448Z,38.22
2019-03-06T08:04:33.088Z,38.22
2019-03-06T08:07:13.120Z,41.27
2019-03-06T08:09:45.156Z,41.43
2019-03-06T08:12:48.448Z,38.83
2019-03-06T08:15:38.829Z,40.99
2019-03-06T08:18:32.708Z,40.47
2019-03-06T08:21:15.401Z,40.55
2019-03-06T08:24:13.384Z,40.55
2019-03-06T08:26:45.523Z,40.94
2019-03-06T08:29:17.212Z,42.12
2019-03-06T08:31:57.766Z,42.12
2019-03-06T08:34:29.480Z,41.02
2019-03-06T08:37:00.934Z,39.27
2019-03-06T08:39:32.371Z,39.27
2019-03-06T08:42:03.966Z,40.32
2019-03-06T08:44:35.458Z,40.32
2019-03-06T08:47:24.109Z,41.12
2019-03-06T08:50:04.730Z,39.82
2019-03-06T08:53:08.483Z,37.86
2019-03-06T08:56:03.383Z,40.36
2019-03-06T08:59:06.472Z,40.36
2019-03-06T09:02:15.614Z,39.32
2019-03-06T09:04:59.407Z,41.06
2019-03-06T09:07:49.949Z,39.46
2019-03-06T09:10:39.427Z,39.46
2019-03-06T09:13:28.846Z,39.23
2019-03-06T09:16:18.050Z,39.23
2019-03-06T09:19:17.552Z,39.96
2019-03-06T09:22:08.499Z,38.87
2019-03-06T09:25:07.058Z,38.87
2019-03-06T09:27:57.784Z,38.07
2019-03-06T09:30:36.892Z,38.07
2019-03-06T09:33:13.711Z,37.79
2019-03-06T09:36:12.516Z,36.92
2019-03-06T09:39:02.940Z,39.90
2019-03-06T09:42:00.403Z,38.52
2019-03-06T09:44:44.986Z,37.38
2019-03-06T09:47:44.668Z,37.38
2019-03-06T09:50:28.177Z,36.90
2019-03-06T09:53:24.653Z,36.82
2019-03-06T09:56:14.579Z,37.79
2019-03-06T09:59:23.377Z,38.92
2019-03-06T10:02:12.683Z,38.92
2019-03-06T10:05:18.170Z,38.27
2019-03-06T10:08:26.485Z,38.50
2019-03-06T10:11:10.699Z,38.77
2019-03-06T10:14:20.080Z,35.67
2019-03-06T10:17:07.495Z,34.53
2019-03-06T10:19:57.462Z,36.99
2019-03-06T10:22:29.297Z,36.99
2019-03-06T10:25:00.940Z,35.60
2019-03-06T10:27:32.490Z,34.70
2019-03-06T10:30:06.653Z,34.70
2019-03-06T10:32:38.374Z,34.53
2019-03-06T10:35:10.738Z,34.53
2019-03-06T10:37:43.679Z,36.40
2019-03-06T10:40:17.601Z,36.61
2019-03-06T10:42:49.290Z,36.61
2019-03-06T10:45:21.247Z,37.94
2019-03-06T10:47:53.561Z,35.21
2019-03-06T10:50:28.767Z,35.21
2019-03-06T10:52:59.280Z,37.47
2019-03-06T10:55:31.169Z,37.30
2019-03-06T10:58:03.521Z,37.36
2019-03-06T11:00:38.894Z,37.36
2019-03-06T11:03:10.840Z,36.60
2019-03-06T11:05:42.892Z,36.36
2019-03-06T11:08:15.438Z,37.55
2019-03-06T11:10:47.262Z,36.99
2019-03-06T11:13:19.555Z,35.07
2019-03-06T11:15:55.767Z,35.75
2019-03-06T11:18:25.086Z,37.17
2019-03-06T11:20:56.970Z,36.18
2019-03-06T11:23:28.636Z,35.07
2019-03-06T11:26:01.903Z,37.18
2019-03-06T11:28:34.394Z,36.22
2019-03-06T11:31:06.272Z,34.89
2019-03-06T11:33:38.432Z,34.88
2019-03-06T11:36:10.162Z,35.22
2019-03-06T11:38:42.085Z,36.50
2019-03-06T11:41:13.860Z,36.50
2019-03-06T11:43:45.825Z,36.15
2019-03-06T11:46:18.556Z,35.12
2019-03-06T11:48:52.099Z,36.52
2019-03-06T11:51:23.378Z,36.52
2019-03-06T11:53:55.253Z,36.57
2019-03-06T11:56:27.004Z,36.57
2019-03-06T11:58:59.844Z,36.05
2019-03-06T12:01:33.254Z,36.05
2019-03-06T12:04:05.211Z,36.78
2019-03-06T12:06:37.077Z,37.82
2019-03-06T12:09:28.423Z,37.82
2019-03-06T12:12:07.413Z,38.00
2019-03-06T12:14:39.426Z,37.54
2019-03-06T12:17:10.782Z,38.55
2019-03-06T12:19:43.050Z,38.55
2019-03-06T12:22:15.622Z,38.96
2019-03-06T12:24:47.401Z,38.96
2019-03-06T12:27:18.895Z,41.35
2019-03-06T12:29:51.561Z,41.35
2019-03-06T12:32:29.978Z,40.18
2019-03-06T12:35:01.957Z,40.28
2019-03-06T12:37:33.788Z,41.10
2019-03-06T12:40:12.366Z,43.44
2019-03-06T12:42:39.848Z,42.96
2019-03-06T12:45:15.052Z,43.27
2019-03-06T12:47:55.101Z,41.59
2019-03-06T12:50:24.252Z,43.70
2019-03-06T12:52:59.090Z,41.65
2019-03-06T12:55:30.962Z,43.30
2019-03-06T12:58:02.976Z,42.54
2019-03-06T13:00:35.095Z,43.26
2019-03-06T13:03:07.137Z,43.96
2019-03-06T13:05:39.325Z,43.82
2019-03-06T13:08:19.504Z,44.25
2019-03-06T13:10:45.277Z,45.91
2019-03-06T13:13:18.330Z,45.91
2019-03-06T13:15:50.306Z,46.63
2019-03-06T13:18:22.223Z,44.67
2019-03-06T13:20:54.405Z,46.98
2019-03-06T13:23:26.330Z,46.90
2019-03-06T13:25:59.474Z,46.84
2019-03-06T13:28:31.248Z,46.96
2019-03-06T13:31:03.145Z,47.80
2019-03-06T13:34:03.453Z,48.09
2019-03-06T13:36:35.403Z,48.09
2019-03-06T13:39:09.964Z,48.22
2019-03-06T13:41:43.319Z,48.22
2019-03-06T13:44:15.579Z,48.46
2019-03-06T13:46:47.784Z,48.31
2019-03-06T13:49:19.591Z,48.49
2019-03-06T13:51:51.688Z,48.97
2019-03-06T13:54:23.881Z,49.09
2019-03-06T13:56:56.205Z,49.63
2019-03-06T13:59:27.861Z,47.94
2019-03-06T14:01:59.970Z,48.02
2019-03-06T14:04:31.974Z,49.02
2019-03-06T14:07:04.106Z,49.71
2019-03-06T14:09:36.217Z,50.73
2019-03-06T14:12:08.062Z,50.73
2019-03-06T14:14:40.150Z,51.02
2019-03-06T14:17:12.027Z,51.39
2019-03-06T14:19:44.027Z,51.79
2019-03-06T14:22:16.198Z,51.70
2019-03-06T14:24:48.416Z,51.70
2019-03-06T14:27:20.705Z,51.73
2019-03-06T14:29:52.771Z,51.87
2019-03-06T14:32:25.230Z,51.98
2019-03-06T14:34:57.694Z,51.75
2019-03-06T14:37:30.672Z,51.80
2019-03-06T14:40:09.407Z,52.00
2019-03-06T14:42:36.875Z,52.00
2019-03-06T14:45:11.288Z,51.95
2019-03-06T14:47:43.448Z,51.98
2019-03-06T14:50:15.589Z,52.27
2019-03-06T14:52:47.583Z,52.27
2019-03-06T14:55:19.896Z,52.37
2019-03-06T14:57:52.052Z,52.73
2019-03-06T15:00:24.183Z,52.73
2019-03-06T15:02:56.009Z,52.58
2019-03-06T15:05:28.177Z,52.65
2019-03-06T15:08:00.271Z,52.65
2019-03-06T15:10:32.448Z,52.52
2019-03-06T15:13:04.396Z,53.01
2019-03-06T15:15:36.853Z,53.43
2019-03-06T15:18:10.923Z,53.78
2019-03-06T15:20:42.554Z,54.02
2019-03-06T15:23:14.434Z,54.28
2019-03-06T15:25:46.532Z,54.48
2019-03-06T15:28:20.443Z,54.56
2019-03-06T15:30:52.544Z,54.26
2019-03-06T15:33:24.543Z,54.20
2019-03-06T15:35:56.837Z,54.20
2019-03-06T15:38:28.688Z,54.48
2019-03-06T15:41:00.821Z,54.90
2019-03-06T15:43:33.293Z,55.82
2019-03-06T15:46:05.165Z,56.15
2019-03-06T15:48:37.161Z,56.15
2019-03-06T15:51:09.038Z,56.37
2019-03-06T15:53:41.218Z,56.82
2019-03-06T15:56:14.219Z,55.47
2019-03-06T15:58:46.136Z,55.47
2019-03-06T16:01:18.378Z,54.81
2019-03-06T16:03:52.096Z,54.46
2019-03-06T16:06:25.333Z,54.46
2019-03-06T16:08:57.700Z,54.47
2019-03-06T16:11:29.649Z,54.80
2019-03-06T16:14:01.791Z,55.04
2019-03-06T16:16:34.016Z,55.05
2019-03-06T16:19:07.616Z,55.25
2019-03-06T16:21:40.673Z,55.44
2019-03-06T16:24:12.929Z,55.28
2019-03-06T16:26:45.002Z,55.25
2019-03-06T16:29:17.117Z,55.23
2019-03-06T16:31:49.215Z,60.11
2019-03-06T16:34:21.768Z,60.11
2019-03-06T16:36:53.572Z,61.48
2019-03-06T16:39:26.059Z,62.79
2019-03-06T16:41:58.326Z,62.57
2019-03-06T16:44:30.417Z,62.47
2019-03-06T16:47:06.692Z,62.73
2019-03-06T16:49:36.295Z,63.10
2019-03-06T16:52:08.288Z,63.10
2019-03-06T16:54:40.666Z,61.44
2019-03-06T16:57:12.614Z,61.44
2019-03-06T16:59:44.735Z,61.58
2019-03-06T17:02:17.782Z,62.23
2019-03-06T17:04:50.836Z,61.75
2019-03-06T17:07:22.673Z,62.02
2019-03-06T17:09:54.652Z,62.02
2019-03-06T17:12:26.766Z,62.11
2019-03-06T17:14:58.680Z,61.87
2019-03-06T17:17:30.813Z,62.87
2019-03-06T17:20:02.889Z,62.87
2019-03-06T17:22:34.998Z,63.17
2019-03-06T17:25:07.352Z,63.82
2019-03-06T17:27:39.632Z,63.82
2019-03-06T17:30:14.387Z,64.07
2019-03-06T17:33:06.498Z,64.35
2019-03-06T17:35:38.573Z,64.35
2019-03-06T17:38:11.454Z,64.80
2019-03-06T17:40:43.772Z,65.16
2019-03-06T17:43:16.398Z,65.16
2019-03-06T17:45:48.399Z,64.97
2019-03-06T17:48:20.303Z,64.97
2019-03-06T17:50:51.919Z,65.30
2019-03-06T17:53:23.945Z,65.30
2019-03-06T17:55:55.755Z,66.82
2019-03-06T17:58:27.830Z,66.61
2019-03-06T18:01:06.136Z,66.61
2019-03-06T18:03:49.893Z,66.44
2019-03-06T18:06:21.562Z,66.58
2019-03-06T18:08:53.135Z,67.58
2019-03-06T18:11:26.741Z,67.95
2019-03-06T18:13:58.411Z,68.40
2019-03-06T18:16:30.259Z,68.40
2019-03-06T18:19:01.798Z,67.81
2019-03-06T18:21:33.529Z,67.74
2019-03-06T18:24:05.070Z,67.74
2019-03-06T18:30:18.795Z,65.90
2019-03-06T18:32:51.094Z,66.88
2019-03-06T18:35:23.007Z,66.88
2019-03-06T18:37:54.853Z,67.23
2019-03-06T18:40:27.015Z,67.23
2019-03-06T18:42:58.826Z,68.01
2019-03-06T18:45:30.652Z,68.65
2019-03-06T18:48:02.630Z,68.82
2019-03-06T18:50:34.401Z,69.53
2019-03-06T18:53:06.165Z,69.73
2019-03-06T18:55:39.057Z,69.73
2019-03-06T18:58:10.839Z,70.51
2019-03-06T19:00:42.552Z,69.84
2019-03-06T19:03:16.372Z,70.78
2019-03-06T19:05:48.100Z,70.78
2019-03-06T19:08:20.179Z,71.52
2019-03-06T19:10:51.789Z,72.42
2019-03-06T19:13:23.377Z,72.42
2019-03-06T19:15:55.343Z,72.40
2019-03-06T19:18:26.982Z,72.40
2019-03-06T19:20:59.047Z,72.01
2019-03-06T19:23:31.486Z,72.44
2019-03-06T19:26:04.284Z,71.84
2019-03-06T19:28:36.430Z,71.84
2019-03-06T19:31:08.109Z,72.91
2019-03-06T19:33:40.011Z,73.61
2019-03-06T19:36:11.673Z,74.84
2019-03-06T19:38:43.522Z,74.80
2019-03-06T19:41:14.959Z,74.80
2019-03-06T19:43:46.590Z,74.15
2019-03-06T19:46:18.575Z,74.10
2019-03-06T19:48:50.522Z,73.61
2019-03-06T19:51:21.985Z,73.61
2019-03-06T19:53:54.534Z,73.74
2019-03-06T19:56:26.404Z,73.37
2019-03-06T19:58:58.600Z,73.34
2019-03-06T20:01:32.037Z,74.73
2019-03-06T20:04:03.801Z,74.56
2019-03-06T20:06:36.117Z,73.61
2019-03-06T20:09:35.361Z,74.92
2019-03-06T20:12:08.640Z,75.42
2019-03-06T20:14:40.353Z,75.48
2019-03-06T20:17:12.021Z,75.54
2019-03-06T20:19:43.548Z,75.54
2019-03-06T20:22:14.913Z,76.23
2019-03-06T20:24:46.308Z,76.35
2019-03-06T20:27:17.872Z,75.03
2019-03-06T20:29:49.578Z,74.40
2019-03-06T20:32:21.308Z,74.56
2019-03-06T20:34:53.604Z,74.56
2019-03-06T20:37:25.341Z,75.21
2019-03-06T20:39:57.334Z,75.61
2019-03-06T20:42:29.223Z,75.78
2019-03-06T20:45:00.981Z,75.57
2019-03-06T20:47:33.723Z,75.57
2019-03-06T20:50:06.408Z,76.26
2019-03-06T20:52:38.318Z,76.26
2019-03-06T20:55:10.943Z,75.83
2019-03-06T20:57:42.680Z,75.54
2019-03-06T21:00:16.981Z,75.25
2019-03-06T21:02:48.915Z,75.25
2019-03-06T21:05:20.876Z,73.36
2019-03-06T21:07:52.855Z,72.04
2019-03-06T21:10:24.840Z,72.10
2019-03-06T21:12:56.670Z,72.10
2019-03-06T21:15:28.514Z,71.14
2019-03-06T21:18:00.115Z,70.68
2019-03-06T21:20:31.570Z,70.68
2019-03-06T21:23:03.364Z,70.48
2019-03-06T21:25:35.237Z,70.48
2019-03-06T21:28:07.402Z,71.10
2019-03-06T21:30:40.702Z,71.35
2019-03-06T21:33:13.292Z,71.04
2019-03-06T21:35:44.751Z,71.04
2019-03-06T21:38:16.548Z,72.03
2019-03-06T21:40:48.264Z,71.32
2019-03-06T21:43:20.057Z,71.32
2019-03-06T21:45:51.604Z,70.84
2019-03-06T21:48:23.445Z,70.52
2019-03-06T21:50:57.170Z,70.52
2019-03-06T21:53:28.776Z,71.56
2019-03-06T21:56:00.363Z,71.49
2019-03-06T21:58:31.858Z,73.50
2019-03-06T22:01:03.282Z,73.50
2019-03-06T22:03:35.250Z,74.23
2019-03-06T22:06:06.860Z,74.23
2019-03-06T22:08:38.397Z,74.79
2019-03-06T22:11:10.377Z,74.65
2019-03-06T22:13:42.061Z,74.86
2019-03-06T22:16:15.062Z,74.07
2019-03-06T22:18:46.799Z,75.05
2019-03-06T22:21:18.149Z,74.75
2019-03-06T22:23:49.699Z,74.75
2019-03-06T22:26:21.290Z,74.09
2019-03-06T22:28:53.113Z,72.41
2019-03-06T22:31:25.242Z,73.22
2019-03-06T22:33:56.837Z,73.22
2019-03-06T22:36:28.617Z,72.07
2019-03-06T22:39:01.319Z,72.07
2019-03-06T22:41:35.689Z,71.22
2019-03-06T22:44:07.394Z,71.22
2019-03-06T22:46:39.175Z,70.21
2019-03-06T22:49:10.672Z,70.21
2019-03-06T22:51:42.577Z,68.61
2019-03-06T22:54:14.162Z,68.68
2019-03-06T22:56:46.998Z,68.68
2019-03-06T22:59:18.576Z,69.05
2019-03-06T23:01:53.263Z,68.67
2019-03-06T23:04:25.329Z,68.41
2019-03-06T23:06:57.484Z,68.78
2019-03-06T23:09:29.291Z,69.23
2019-03-06T23:12:00.994Z,69.92
2019-03-06T23:14:34.075Z,70.59
2019-03-06T23:17:05.678Z,70.51
2019-03-06T23:19:37.621Z,70.44
2019-03-06T23:22:10.813Z,70.34
2019-03-06T23:24:42.385Z,70.34
2019-03-06T23:27:13.821Z,69.98
2019-03-06T23:29:48.744Z,70.14
2019-03-06T23:32:20.164Z,71.30
2019-03-06T23:34:52.851Z,71.30
2019-03-06T23:37:24.582Z,72.04
2019-03-06T23:39:56.228Z,73.30
2019-03-06T23:42:30.997Z,73.30
2019-03-06T23:45:02.780Z,75.66
2019-03-06T23:47:34.842Z,74.56
2019-03-06T23:50:07.052Z,74.56
2019-03-06T23:52:57.279Z,73.93
2019-03-06T23:55:30.548Z,74.06
2019-03-06T23:58:02.525Z,75.08
